createdAt,value
2022-08-03T00:01:29.923Z,0.90
2022-08-03T00:03:57.265Z,0.90
2022-08-03T00:06:24.594Z,0.90
2022-08-03T00:08:51.908Z,0.90
2022-08-03T00:11:19.201Z,1.03
2022-08-03T00:13:46.569Z,0.80
2022-08-03T00:16:14.003Z,1.10
2022-08-03T00:18:41.367Z,0.90
2022-08-03T00:21:09.250Z,0.87
2022-08-03T00:23:51.588Z,0.80
2022-08-03T00:26:20.305Z,0.90
2022-08-03T00:28:47.651Z,0.90
2022-08-03T00:31:14.965Z,0.97
2022-08-03T00:33:59.322Z,0.80
2022-08-03T00:36:28.148Z,1.13
2022-08-03T00:38:56.489Z,1.20
2022-08-03T00:41:24.260Z,1.00
2022-08-03T00:43:51.715Z,1.00
2022-08-03T00:46:21.783Z,0.90
2022-08-03T00:48:50.292Z,1.00
2022-08-03T00:51:17.749Z,1.10
2022-08-03T00:53:45.963Z,0.90
2022-08-03T00:56:17.028Z,1.00
2022-08-03T00:58:44.899Z,0.93
2022-08-03T01:01:12.784Z,1.10
2022-08-03T01:03:40.446Z,0.90
2022-08-03T01:06:11.805Z,1.07
2022-08-03T01:08:44.955Z,1.00
2022-08-03T01:11:23.185Z,0.80
2022-08-03T01:14:04.140Z,1.30
2022-08-03T01:16:54.460Z,0.90
2022-08-03T01:19:24.836Z,0.93
2022-08-03T01:21:58.336Z,1.20
2022-08-03T01:24:37.861Z,1.03
2022-08-03T01:27:12.499Z,1.17
2022-08-03T01:29:51.482Z,0.83
2022-08-03T01:32:53.556Z,1.00
2022-08-03T01:35:14.513Z,1.00
2022-08-03T01:37:48.322Z,0.90
2022-08-03T01:40:16.614Z,1.07
2022-08-03T01:42:44.995Z,1.10
2022-08-03T01:45:13.625Z,1.03
2022-08-03T01:47:41.534Z,1.27
2022-08-03T01:50:10.007Z,1.03
2022-08-03T01:52:38.613Z,1.00
2022-08-03T01:55:06.667Z,0.90
2022-08-03T01:57:34.621Z,1.20
2022-08-03T02:00:22.032Z,0.83
2022-08-03T02:02:50.524Z,1.00
2022-08-03T02:05:20.208Z,1.13
2022-08-03T02:07:48.726Z,1.30
2022-08-03T02:10:17.102Z,1.30
2022-08-03T02:13:03.052Z,0.90
2022-08-03T02:15:31.323Z,1.20
2022-08-03T02:17:59.298Z,0.90
2022-08-03T02:20:27.654Z,0.73
2022-08-03T02:22:55.367Z,1.30
2022-08-03T02:25:23.350Z,0.93
2022-08-03T02:27:55.820Z,0.97
2022-08-03T02:30:24.992Z,1.03
2022-08-03T02:32:55.245Z,0.90
2022-08-03T02:35:25.157Z,0.83
2022-08-03T02:37:53.591Z,1.10
2022-08-03T02:40:21.782Z,0.90
2022-08-03T02:42:52.642Z,0.80
2022-08-03T02:45:21.078Z,1.00
2022-08-03T02:47:53.864Z,1.00
2022-08-03T02:50:22.631Z,1.00
2022-08-03T02:52:50.637Z,0.90
2022-08-03T02:55:19.830Z,1.00
2022-08-03T02:57:47.559Z,0.80
2022-08-03T03:00:27.407Z,0.97
2022-08-03T03:02:56.646Z,1.40
2022-08-03T03:05:52.387Z,1.10
2022-08-03T03:08:17.607Z,1.00
2022-08-03T03:10:46.662Z,1.00
2022-08-03T03:13:15.884Z,1.20
2022-08-03T03:15:44.596Z,1.30
2022-08-03T03:18:12.563Z,0.90
2022-08-03T03:20:40.932Z,1.10
2022-08-03T03:23:09.774Z,0.90
2022-08-03T03:25:37.421Z,1.00
2022-08-03T03:28:06.246Z,1.27
2022-08-03T03:30:34.752Z,1.03
2022-08-03T03:33:02.932Z,0.97
2022-08-03T03:35:30.334Z,1.30
2022-08-03T03:37:57.797Z,1.30
2022-08-03T03:40:25.281Z,1.10
2022-08-03T03:42:52.960Z,0.97
2022-08-03T03:45:21.356Z,1.20
2022-08-03T03:47:48.790Z,1.17
2022-08-03T03:50:16.584Z,1.00
2022-08-03T03:52:43.925Z,1.23
2022-08-03T03:55:11.369Z,1.10
2022-08-03T03:57:38.707Z,1.23
2022-08-03T04:00:06.498Z,1.00
2022-08-03T04:02:33.841Z,1.03
2022-08-03T04:05:20.063Z,1.23
2022-08-03T04:08:10.524Z,1.00
2022-08-03T04:10:59.176Z,1.13
2022-08-03T04:13:55.597Z,1.20
2022-08-03T04:16:31.149Z,1.03
2022-08-03T04:19:01.394Z,1.10
2022-08-03T04:21:29.587Z,1.10
2022-08-03T04:23:59.366Z,0.90
2022-08-03T04:26:28.087Z,0.97
2022-08-03T04:28:55.705Z,1.10
2022-08-03T04:31:23.862Z,1.10
2022-08-03T04:33:51.935Z,0.90
2022-08-03T04:36:21.640Z,1.10
2022-08-03T04:39:03.264Z,1.20
2022-08-03T04:41:31.811Z,1.40
2022-08-03T04:44:00.272Z,1.03
2022-08-03T04:46:29.167Z,1.00
2022-08-03T04:48:57.161Z,1.17
2022-08-03T04:51:25.024Z,1.10
2022-08-03T04:53:52.558Z,1.17
2022-08-03T04:56:20.338Z,1.27
2022-08-03T04:58:47.665Z,1.67
2022-08-03T05:01:15.412Z,1.40
2022-08-03T05:03:42.761Z,1.10
2022-08-03T05:06:11.357Z,1.30
2022-08-03T05:08:46.531Z,1.57
2022-08-03T05:11:16.660Z,1.50
2022-08-03T05:13:44.486Z,1.40
2022-08-03T05:16:12.077Z,1.30
2022-08-03T05:18:39.733Z,1.40
2022-08-03T05:21:07.364Z,1.10
2022-08-03T05:23:35.088Z,1.20
2022-08-03T05:26:02.892Z,1.40
2022-08-03T05:28:30.624Z,1.13
2022-08-03T05:30:58.153Z,1.03
2022-08-03T05:33:25.449Z,1.50
2022-08-03T05:36:00.591Z,1.47
2022-08-03T05:38:34.759Z,1.40
2022-08-03T05:41:20.357Z,1.20
2022-08-03T05:43:50.691Z,1.20
2022-08-03T05:46:18.483Z,1.30
2022-08-03T05:48:45.846Z,1.30
2022-08-03T05:51:13.491Z,1.33
2022-08-03T05:53:41.766Z,1.40
2022-08-03T05:56:13.771Z,1.30
2022-08-03T05:58:47.340Z,1.77
2022-08-03T06:01:15.730Z,1.53
2022-08-03T06:03:43.411Z,1.50
2022-08-03T06:06:11.650Z,1.17
2022-08-03T06:08:39.489Z,1.60
2022-08-03T06:11:07.025Z,1.20
2022-08-03T06:13:34.554Z,1.37
2022-08-03T06:16:02.058Z,1.70
2022-08-03T06:18:29.403Z,1.70
2022-08-03T06:20:56.735Z,1.50
2022-08-03T06:23:52.574Z,1.57
2022-08-03T06:26:13.331Z,1.30
2022-08-03T06:28:52.441Z,1.63
2022-08-03T06:31:21.282Z,1.40
2022-08-03T06:34:32.354Z,1.20
2022-08-03T06:36:35.874Z,1.63
2022-08-03T06:39:03.677Z,1.23
2022-08-03T06:41:31.009Z,1.30
2022-08-03T06:44:08.475Z,1.50
2022-08-03T06:46:37.769Z,2.33
2022-08-03T06:49:05.211Z,1.50
2022-08-03T06:52:05.729Z,1.70
2022-08-03T06:54:22.180Z,1.77
2022-08-03T06:56:49.558Z,1.43
2022-08-03T07:00:06.300Z,1.70
2022-08-03T07:02:04.581Z,1.57
2022-08-03T07:04:31.949Z,1.60
2022-08-03T07:06:59.283Z,1.73
2022-08-03T07:09:26.907Z,1.30
2022-08-03T07:11:55.090Z,1.67
2022-08-03T07:14:22.533Z,1.60
2022-08-03T07:16:50.361Z,1.57
2022-08-03T07:19:17.705Z,1.30
2022-08-03T07:21:45.895Z,1.30
2022-08-03T07:24:13.311Z,1.57
2022-08-03T07:26:40.664Z,1.37
2022-08-03T07:29:14.773Z,1.50
2022-08-03T07:31:42.759Z,1.70
2022-08-03T07:34:10.062Z,1.80
2022-08-03T07:36:37.485Z,1.80
2022-08-03T07:39:15.382Z,2.00
2022-08-03T07:41:45.373Z,2.30
2022-08-03T07:44:12.857Z,1.67
2022-08-03T07:46:40.188Z,1.67
2022-08-03T07:49:07.595Z,2.10
2022-08-03T07:51:35.072Z,1.77
2022-08-03T07:54:02.380Z,1.50
2022-08-03T07:56:30.188Z,1.67
2022-08-03T07:58:57.613Z,1.90
2022-08-03T08:01:25.099Z,1.77
2022-08-03T08:03:53.751Z,1.50
2022-08-03T08:06:21.631Z,2.10
2022-08-03T08:08:49.090Z,2.10
2022-08-03T08:11:16.456Z,2.20
2022-08-03T08:13:43.793Z,2.00
2022-08-03T08:16:11.530Z,2.20
2022-08-03T08:18:38.841Z,2.40
2022-08-03T08:21:06.190Z,2.20
2022-08-03T08:23:42.885Z,2.40
2022-08-03T08:26:11.651Z,1.90
2022-08-03T08:28:39.022Z,1.90
2022-08-03T08:31:06.689Z,2.20
2022-08-03T08:34:02.696Z,2.33
2022-08-03T08:36:22.550Z,2.33
2022-08-03T08:38:49.865Z,1.83
2022-08-03T08:41:17.547Z,1.83
2022-08-03T08:43:44.974Z,1.80
2022-08-03T08:46:13.006Z,1.73
2022-08-03T08:48:51.749Z,1.70
2022-08-03T08:51:20.395Z,1.87
2022-08-03T08:53:50.257Z,1.90
2022-08-03T08:56:17.718Z,1.90
2022-08-03T08:58:49.856Z,2.00
2022-08-03T09:01:19.679Z,2.17
2022-08-03T09:03:47.420Z,1.73
2022-08-03T09:06:15.228Z,1.53
2022-08-03T09:08:42.727Z,1.97
2022-08-03T09:11:12.089Z,2.13
2022-08-03T09:13:39.882Z,1.67
2022-08-03T09:16:10.780Z,1.73
2022-08-03T09:18:38.654Z,1.90
2022-08-03T09:21:31.132Z,1.80
2022-08-03T09:24:03.658Z,1.77
2022-08-03T09:26:32.354Z,1.67
2022-08-03T09:29:08.103Z,1.67
2022-08-03T09:31:43.697Z,1.80
2022-08-03T09:34:12.312Z,1.77
2022-08-03T09:36:43.191Z,2.00
2022-08-03T09:39:14.646Z,2.20
2022-08-03T09:41:43.018Z,1.90
2022-08-03T09:44:24.007Z,1.43
2022-08-03T09:46:57.052Z,1.50
2022-08-03T09:49:25.142Z,2.07
2022-08-03T09:52:30.063Z,2.60
2022-08-03T09:54:40.724Z,1.90
2022-08-03T09:57:08.142Z,1.90
2022-08-03T09:59:35.490Z,1.73
2022-08-03T10:02:06.616Z,1.40
2022-08-03T10:04:33.932Z,2.00
2022-08-03T10:07:09.275Z,1.80
2022-08-03T10:09:37.517Z,1.53
2022-08-03T10:12:09.284Z,1.30
2022-08-03T10:14:37.866Z,1.70
2022-08-03T10:17:05.276Z,1.60
2022-08-03T10:19:32.672Z,1.73
2022-08-03T10:22:03.643Z,1.60
2022-08-03T10:24:31.442Z,1.50
2022-08-03T10:27:07.247Z,1.70
2022-08-03T10:29:40.451Z,1.73
2022-08-03T10:32:14.564Z,1.60
2022-08-03T10:34:44.657Z,1.53
2022-08-03T10:37:13.263Z,1.50
2022-08-03T10:39:53.264Z,1.87
2022-08-03T10:42:26.442Z,2.33
2022-08-03T10:44:56.811Z,1.77
2022-08-03T10:47:24.300Z,1.80
2022-08-03T10:49:51.935Z,1.80
2022-08-03T10:52:31.845Z,1.83
2022-08-03T10:55:20.851Z,2.03
2022-08-03T10:57:58.486Z,1.50
2022-08-03T11:00:27.551Z,1.70
2022-08-03T11:03:08.675Z,1.40
2022-08-03T11:05:40.238Z,1.90
2022-08-03T11:08:27.812Z,1.60
2022-08-03T11:10:56.517Z,1.50
2022-08-03T11:13:25.559Z,1.50
2022-08-03T11:16:00.117Z,1.60
2022-08-03T11:18:30.491Z,1.80
2022-08-03T11:20:59.230Z,1.93
2022-08-03T11:24:03.938Z,1.60
2022-08-03T11:26:29.502Z,1.77
2022-08-03T11:29:16.765Z,1.73
2022-08-03T11:31:52.662Z,1.80
2022-08-03T11:34:20.077Z,1.60
2022-08-03T11:37:06.205Z,1.60
2022-08-03T11:39:40.453Z,1.80
2022-08-03T11:42:40.348Z,1.67
2022-08-03T11:45:07.957Z,1.60
2022-08-03T11:47:37.536Z,1.60
2022-08-03T11:50:19.978Z,1.67
2022-08-03T11:52:47.919Z,1.63
2022-08-03T11:55:16.544Z,1.70
2022-08-03T11:59:17.833Z,1.50
2022-08-03T12:00:33.871Z,1.60
2022-08-03T12:03:02.774Z,1.70
2022-08-03T12:05:34.094Z,1.83
2022-08-03T12:08:03.338Z,1.67
2022-08-03T12:10:32.034Z,1.87
2022-08-03T12:13:00.779Z,1.50
2022-08-03T12:15:33.989Z,1.60
2022-08-03T12:18:01.647Z,1.40
2022-08-03T12:20:34.955Z,1.67
2022-08-03T12:23:06.407Z,1.70
2022-08-03T12:25:38.898Z,1.70
2022-08-03T12:28:36.949Z,1.77
2022-08-03T12:31:01.958Z,1.73
2022-08-03T12:33:29.376Z,1.60
2022-08-03T12:36:04.759Z,1.53
2022-08-03T12:38:33.156Z,1.70
2022-08-03T12:41:08.759Z,1.70
2022-08-03T12:43:37.582Z,1.53
2022-08-03T12:46:16.755Z,1.80
2022-08-03T12:48:59.982Z,2.17
2022-08-03T12:51:27.887Z,1.70
2022-08-03T12:53:55.713Z,1.43
2022-08-03T12:56:23.432Z,1.50
2022-08-03T12:58:50.865Z,1.60
2022-08-03T13:01:18.529Z,1.60
2022-08-03T13:03:50.354Z,1.53
2022-08-03T13:06:24.603Z,1.40
2022-08-03T13:09:12.188Z,1.40
2022-08-03T13:11:57.370Z,1.70
2022-08-03T13:14:26.780Z,1.30
2022-08-03T13:16:54.190Z,1.70
2022-08-03T13:19:21.512Z,1.70
2022-08-03T13:21:53.461Z,1.97
2022-08-03T13:24:32.330Z,1.80
2022-08-03T13:27:00.384Z,1.30
2022-08-03T13:29:27.882Z,1.50
2022-08-03T13:31:55.227Z,1.50
2022-08-03T13:34:24.043Z,1.43
2022-08-03T13:37:09.247Z,1.87
2022-08-03T13:39:58.149Z,1.43
2022-08-03T13:42:24.769Z,1.53
2022-08-03T13:44:52.129Z,1.90
2022-08-03T13:47:20.201Z,1.50
2022-08-03T13:49:54.217Z,1.50
2022-08-03T13:52:28.384Z,1.77
2022-08-03T13:54:55.731Z,1.50
2022-08-03T13:58:05.170Z,1.80
2022-08-03T14:00:10.795Z,1.77
2022-08-03T14:02:38.424Z,1.47
2022-08-03T14:05:05.993Z,1.50
2022-08-03T14:07:33.410Z,1.40
2022-08-03T14:10:01.865Z,1.50
2022-08-03T14:12:29.276Z,1.63
2022-08-03T14:14:59.581Z,1.30
2022-08-03T14:17:42.073Z,1.50
2022-08-03T14:20:36.699Z,1.40
2022-08-03T14:22:57.473Z,1.37
2022-08-03T14:25:24.855Z,1.67
2022-08-03T14:27:52.220Z,1.23
2022-08-03T14:30:19.644Z,1.53
2022-08-03T14:32:47.020Z,1.20
2022-08-03T14:35:14.535Z,1.33
2022-08-03T14:37:41.942Z,1.20
2022-08-03T14:40:09.418Z,1.00
2022-08-03T14:42:36.797Z,1.40
2022-08-03T14:45:09.619Z,1.20
2022-08-03T14:50:29.392Z,1.40
2022-08-03T14:50:42.957Z,1.37
2022-08-03T14:53:13.038Z,1.40
2022-08-03T14:55:49.693Z,1.10
2022-08-03T14:58:21.107Z,0.87
2022-08-03T15:00:49.779Z,1.20
2022-08-03T15:03:20.254Z,1.20
2022-08-03T15:05:47.933Z,0.93
2022-08-03T15:08:15.342Z,1.10
2022-08-03T15:10:44.242Z,1.20
2022-08-03T15:13:12.230Z,0.83
2022-08-03T15:15:39.649Z,1.20
2022-08-03T15:18:06.955Z,1.20
2022-08-03T15:20:49.623Z,1.43
2022-08-03T15:23:17.657Z,1.13
2022-08-03T15:26:28.639Z,1.10
2022-08-03T15:28:33.488Z,1.20
2022-08-03T15:31:01.771Z,1.30
2022-08-03T15:33:29.657Z,1.20
2022-08-03T15:35:57.256Z,1.40
2022-08-03T15:38:26.181Z,0.97
2022-08-03T15:40:58.928Z,1.07
2022-08-03T15:43:26.302Z,1.47
2022-08-03T15:48:41.821Z,1.20
2022-08-03T15:51:09.498Z,1.10
2022-08-03T15:53:37.861Z,1.10
2022-08-03T15:56:12.122Z,1.30
2022-08-03T15:59:07.603Z,0.90
2022-08-03T16:01:29.047Z,1.77
2022-08-03T16:03:56.373Z,1.40
2022-08-03T16:06:29.719Z,1.20
2022-08-03T16:09:04.982Z,1.40
2022-08-03T16:11:32.353Z,1.30
2022-08-03T16:14:13.280Z,1.13
2022-08-03T16:16:47.009Z,1.30
2022-08-03T16:19:14.358Z,1.20
2022-08-03T16:21:48.393Z,1.10
2022-08-03T16:24:20.002Z,1.10
2022-08-03T16:26:55.319Z,1.00
2022-08-03T16:29:23.555Z,1.00
2022-08-03T16:31:52.151Z,1.13
2022-08-03T16:34:19.954Z,1.20
2022-08-03T16:36:47.791Z,1.10
2022-08-03T16:39:15.282Z,1.20
2022-08-03T16:41:54.998Z,0.93
2022-08-03T16:44:30.015Z,1.10
2022-08-03T16:46:57.773Z,0.97
2022-08-03T16:49:53.890Z,1.00
2022-08-03T16:52:13.080Z,1.10
2022-08-03T16:54:40.854Z,1.13
2022-08-03T16:57:08.648Z,1.10
2022-08-03T16:59:37.061Z,1.20
2022-08-03T17:02:10.450Z,1.07
2022-08-03T17:04:40.118Z,1.13
2022-08-03T17:07:08.898Z,1.10
2022-08-03T17:09:38.173Z,1.00
2022-08-03T17:12:10.933Z,0.90
2022-08-03T17:14:38.408Z,1.03
2022-08-03T17:17:09.675Z,1.00
2022-08-03T17:19:47.399Z,1.00
2022-08-03T17:22:25.309Z,1.07
2022-08-03T17:24:56.224Z,1.17
2022-08-03T17:28:49.759Z,0.90
2022-08-03T17:30:18.921Z,1.13
2022-08-03T17:32:56.699Z,0.97
2022-08-03T17:35:34.409Z,1.00
2022-08-03T17:38:06.691Z,1.37
2022-08-03T17:40:35.374Z,1.30
2022-08-03T17:44:13.532Z,0.93
2022-08-03T17:45:55.045Z,1.00
2022-08-03T17:48:24.917Z,1.00
2022-08-03T17:50:56.326Z,1.20
2022-08-03T17:53:33.029Z,0.90
2022-08-03T17:56:45.020Z,0.93
2022-08-03T17:59:16.390Z,1.00
2022-08-03T18:02:41.313Z,0.87
2022-08-03T18:05:18.257Z,1.00
2022-08-03T18:08:00.855Z,1.10
2022-08-03T18:10:34.429Z,0.93
2022-08-03T18:13:10.433Z,1.03
2022-08-03T18:15:40.639Z,0.80
2022-08-03T18:18:10.949Z,1.10
2022-08-03T18:20:42.027Z,0.90
2022-08-03T18:23:11.037Z,1.03
2022-08-03T18:25:57.903Z,0.70
2022-08-03T18:28:27.228Z,1.00
2022-08-03T18:30:56.431Z,0.83
2022-08-03T18:34:18.564Z,0.77
2022-08-03T18:36:21.773Z,0.90
2022-08-03T18:38:58.370Z,0.80
2022-08-03T18:41:32.619Z,0.80
2022-08-03T18:44:08.915Z,0.93
2022-08-03T18:47:01.560Z,0.67
2022-08-03T18:49:37.808Z,0.70
2022-08-03T18:52:26.973Z,0.90
2022-08-03T18:55:02.880Z,0.90
2022-08-03T18:57:44.278Z,0.70
2022-08-03T19:00:16.083Z,1.00
2022-08-03T19:02:49.086Z,0.80
2022-08-03T19:05:18.524Z,0.83
2022-08-03T19:07:58.173Z,0.90
2022-08-03T19:10:30.355Z,1.20
2022-08-03T19:13:03.881Z,0.80
2022-08-03T19:15:41.309Z,1.03
2022-08-03T19:18:18.641Z,1.00
2022-08-03T19:20:46.958Z,0.80
2022-08-03T19:23:16.547Z,0.80
2022-08-03T19:25:44.372Z,1.10
2022-08-03T19:28:11.858Z,1.00
2022-08-03T19:30:40.654Z,1.03
2022-08-03T19:33:14.950Z,0.90
2022-08-03T19:35:51.370Z,1.03
2022-08-03T19:38:27.555Z,0.90
2022-08-03T19:41:01.499Z,0.87
2022-08-03T19:43:53.275Z,0.87
2022-08-03T19:46:22.167Z,1.10
2022-08-03T19:49:00.083Z,1.03
2022-08-03T19:51:56.693Z,1.10
2022-08-03T19:54:29.831Z,1.43
2022-08-03T19:59:49.912Z,1.30
2022-08-03T20:02:27.310Z,1.30
2022-08-03T20:04:59.893Z,1.43
2022-08-03T20:07:28.573Z,1.20
2022-08-03T20:09:56.848Z,1.53
2022-08-03T20:12:27.481Z,1.47
2022-08-03T20:14:57.354Z,1.30
2022-08-03T20:17:55.322Z,1.30
2022-08-03T20:20:12.598Z,1.30
2022-08-03T20:22:43.163Z,1.27
2022-08-03T20:25:20.667Z,1.57
2022-08-03T20:28:07.421Z,1.30
2022-08-03T20:30:36.756Z,1.40
2022-08-03T20:33:04.587Z,1.43
2022-08-03T20:35:33.341Z,1.40
2022-08-03T20:38:00.887Z,1.40
2022-08-03T20:40:29.006Z,1.40
2022-08-03T20:42:56.445Z,1.20
2022-08-03T20:46:01.138Z,1.57
2022-08-03T20:48:11.356Z,1.20
2022-08-03T20:50:43.966Z,1.33
2022-08-03T20:53:13.207Z,1.40
2022-08-03T20:55:48.176Z,1.20
2022-08-03T20:58:28.724Z,1.20
2022-08-03T21:00:57.512Z,1.20
2022-08-03T21:03:24.819Z,1.20
2022-08-03T21:06:10.715Z,1.10
2022-08-03T21:08:46.758Z,1.43
2022-08-03T21:11:17.290Z,1.30
2022-08-03T21:13:03.269Z,1.50
2022-08-03T21:13:53.223Z,1.10
2022-08-03T21:16:21.678Z,1.40
2022-08-03T21:18:53.602Z,1.30
2022-08-03T21:21:22.056Z,1.30
2022-08-03T21:23:50.407Z,1.20
2022-08-03T21:26:25.331Z,1.27
2022-08-03T21:28:53.832Z,1.20
2022-08-03T21:31:25.276Z,1.13
2022-08-03T21:33:57.587Z,1.30
2022-08-03T21:36:27.395Z,1.20
2022-08-03T21:38:56.442Z,1.13
2022-08-03T21:41:25.865Z,1.40
2022-08-03T21:43:53.160Z,1.30
2022-08-03T21:46:20.669Z,1.20
2022-08-03T21:48:48.799Z,1.13
2022-08-03T21:51:19.249Z,1.33
2022-08-03T21:54:02.824Z,1.67
2022-08-03T21:56:40.892Z,1.07
2022-08-03T21:59:09.648Z,1.00
2022-08-03T22:01:37.178Z,1.10
2022-08-03T22:04:06.911Z,1.00
2022-08-03T22:06:34.552Z,0.97
2022-08-03T22:09:01.942Z,1.17
2022-08-03T22:11:29.751Z,1.00
2022-08-03T22:13:57.067Z,0.93
2022-08-03T22:16:24.644Z,1.00
2022-08-03T22:18:52.009Z,1.10
2022-08-03T22:21:28.123Z,1.00
2022-08-03T22:24:05.239Z,1.10
2022-08-03T22:26:35.319Z,0.90
2022-08-03T22:29:06.785Z,1.00
2022-08-03T22:31:58.566Z,1.10
2022-08-03T22:34:26.341Z,1.10
2022-08-03T22:36:55.752Z,1.03
2022-08-03T22:39:27.404Z,1.10
2022-08-03T22:41:55.479Z,1.10
2022-08-03T22:44:22.804Z,1.03
2022-08-03T22:46:50.221Z,1.10
2022-08-03T22:49:18.759Z,1.00
2022-08-03T22:51:46.444Z,1.10
2022-08-03T22:54:13.942Z,1.20
2022-08-03T22:56:41.393Z,0.87
2022-08-03T22:59:39.089Z,1.00
2022-08-03T23:01:59.491Z,1.20
2022-08-03T23:04:28.737Z,1.20
2022-08-03T23:07:01.438Z,1.00
2022-08-03T23:09:29.073Z,1.10
2022-08-03T23:11:56.872Z,1.00
2022-08-03T23:14:25.414Z,1.00
2022-08-03T23:16:53.962Z,1.10
2022-08-03T23:19:25.602Z,1.10
2022-08-03T23:22:03.207Z,1.00
2022-08-03T23:24:34.482Z,1.07
2022-08-03T23:27:03.049Z,1.03
2022-08-03T23:29:31.365Z,0.90
2022-08-03T23:31:59.570Z,1.10
2022-08-03T23:34:46.862Z,1.20
2022-08-03T23:37:15.512Z,1.00
2022-08-03T23:39:45.352Z,1.33
2022-08-03T23:42:13.909Z,1.20
2022-08-03T23:44:42.975Z,1.27
2022-08-03T23:47:10.347Z,1.20
2022-08-03T23:49:37.752Z,1.23
2022-08-03T23:52:25.379Z,1.13
2022-08-03T23:54:58.297Z,0.90
2022-08-03T23:57:47.672Z,1.20
